createdAt,value
2023-03-19T00:04:02.029Z,7.73
2023-03-19T00:09:05.228Z,7.63
2023-03-19T00:14:07.450Z,7.37
2023-03-19T00:19:09.176Z,5.00
2023-03-19T00:24:12.583Z,6.03
2023-03-19T00:29:14.758Z,5.50
2023-03-19T00:34:16.440Z,7.17
2023-03-19T00:39:19.495Z,6.20
2023-03-19T00:44:21.442Z,5.90
2023-03-19T00:49:23.411Z,5.97
2023-03-19T00:54:26.445Z,8.47
2023-03-19T00:59:28.162Z,8.07
2023-03-19T01:04:29.979Z,9.13
2023-03-19T01:09:33.636Z,5.70
2023-03-19T01:14:35.813Z,6.53
2023-03-19T01:19:37.950Z,5.87
2023-03-19T01:24:41.438Z,8.03
2023-03-19T01:29:43.535Z,5.60
2023-03-19T01:34:45.550Z,7.50
2023-03-19T01:39:51.212Z,6.87
2023-03-19T01:44:53.483Z,7.53
2023-03-19T01:49:57.332Z,6.60
2023-03-19T01:55:03.122Z,7.83
2023-03-19T02:00:07.085Z,8.83
2023-03-19T02:05:12.147Z,7.37
2023-03-19T02:10:17.447Z,10.13
2023-03-19T02:15:20.088Z,9.30
2023-03-19T02:20:27.517Z,7.90
2023-03-19T02:25:38.186Z,8.67
2023-03-19T02:30:43.349Z,9.90
2023-03-19T02:35:47.718Z,10.90
2023-03-19T02:40:58.351Z,9.17
2023-03-19T02:46:02.278Z,8.47
2023-03-19T02:51:04.842Z,9.23
2023-03-19T02:56:07.731Z,11.03
2023-03-19T03:01:11.282Z,11.73
2023-03-19T03:06:13.502Z,10.50
2023-03-19T03:11:15.595Z,7.73
2023-03-19T03:16:19.266Z,14.07
2023-03-19T03:21:21.662Z,10.73
2023-03-19T03:26:23.715Z,12.07
2023-03-19T03:31:33.119Z,12.60
2023-03-19T03:36:35.219Z,7.67
2023-03-19T03:41:37.248Z,12.03
2023-03-19T03:46:40.992Z,13.17
2023-03-19T03:51:42.717Z,13.57
2023-03-19T03:56:44.924Z,12.13
2023-03-19T04:01:48.491Z,13.97
2023-03-19T04:06:52.515Z,12.73
2023-03-19T04:11:54.612Z,14.50
2023-03-19T04:16:58.115Z,11.33
2023-03-19T04:22:00.225Z,12.97
2023-03-19T04:27:02.316Z,11.97
2023-03-19T04:32:06.646Z,15.40
2023-03-19T04:37:09.250Z,14.13
2023-03-19T04:42:11.107Z,13.00
2023-03-19T04:47:14.830Z,13.60
2023-03-19T04:52:16.931Z,13.70
2023-03-19T04:57:19.152Z,12.53
2023-03-19T05:02:22.744Z,15.77
2023-03-19T05:07:24.869Z,12.20
2023-03-19T05:12:26.902Z,15.10
2023-03-19T05:17:30.768Z,13.90
2023-03-19T05:22:40.470Z,15.03
2023-03-19T05:27:42.532Z,13.60
2023-03-19T05:32:46.250Z,13.60
2023-03-19T05:37:48.374Z,12.40
2023-03-19T05:42:51.182Z,16.77
2023-03-19T05:47:54.593Z,19.43
2023-03-19T05:52:57.084Z,15.77
2023-03-19T05:57:59.534Z,16.53
2023-03-19T06:03:03.262Z,20.53
2023-03-19T06:08:05.903Z,15.63
2023-03-19T06:13:07.777Z,16.73
2023-03-19T06:18:13.373Z,16.37
2023-03-19T06:23:16.394Z,19.77
2023-03-19T06:28:18.901Z,15.07
2023-03-19T06:33:22.416Z,16.70
2023-03-19T06:38:24.725Z,13.90
2023-03-19T06:43:27.048Z,13.47
2023-03-19T06:48:30.586Z,14.13
2023-03-19T06:53:33.721Z,13.87
2023-03-19T06:58:36.007Z,15.77
2023-03-19T07:03:39.705Z,15.23
2023-03-19T07:08:41.886Z,18.20
2023-03-19T07:13:44.399Z,17.50
2023-03-19T07:18:47.781Z,13.67
2023-03-19T07:23:49.996Z,16.03
2023-03-19T07:28:52.290Z,15.60
2023-03-19T07:33:55.863Z,14.97
2023-03-19T07:38:58.467Z,16.33
2023-03-19T07:44:00.769Z,21.50
2023-03-19T07:49:05.264Z,19.87
2023-03-19T07:54:07.640Z,15.97
2023-03-19T07:59:09.820Z,18.37
2023-03-19T08:04:13.356Z,20.50
2023-03-19T08:09:15.392Z,17.60
2023-03-19T08:14:17.318Z,18.23
2023-03-19T08:19:20.896Z,20.50
2023-03-19T08:24:22.992Z,21.97
2023-03-19T08:29:25.090Z,20.83
2023-03-19T08:34:28.398Z,22.70
2023-03-19T08:39:30.466Z,18.03
2023-03-19T08:44:32.243Z,20.30
2023-03-19T08:49:35.757Z,18.80
2023-03-19T08:54:37.571Z,19.60
2023-03-19T08:59:39.727Z,20.23
2023-03-19T09:04:43.058Z,18.73
2023-03-19T09:09:45.610Z,18.80
2023-03-19T09:14:47.417Z,19.20
2023-03-19T09:19:52.887Z,14.40
2023-03-19T09:24:55.015Z,14.33
2023-03-19T09:29:56.782Z,14.83
2023-03-19T09:35:00.425Z,11.53
2023-03-19T09:40:02.492Z,14.60
2023-03-19T09:45:12.225Z,11.97
2023-03-19T09:50:17.460Z,12.23
2023-03-19T09:55:36.009Z,12.10
2023-03-19T10:00:39.593Z,9.90
2023-03-19T10:05:55.041Z,10.53
2023-03-19T10:11:15.314Z,9.60
2023-03-19T10:16:21.426Z,8.63
2023-03-19T10:21:33.072Z,9.60
2023-03-19T10:26:35.827Z,9.63
2023-03-19T10:31:43.924Z,6.70
2023-03-19T10:36:47.597Z,6.73
2023-03-19T10:41:57.684Z,6.03
2023-03-19T10:47:08.886Z,6.60
2023-03-19T10:52:22.676Z,7.07
2023-03-19T10:57:27.950Z,10.90
2023-03-19T11:02:31.075Z,7.93
2023-03-19T11:07:36.652Z,8.90
2023-03-19T11:12:38.930Z,7.23
2023-03-19T11:17:46.090Z,7.53
2023-03-19T11:22:49.901Z,8.53
2023-03-19T11:27:59.275Z,9.60
2023-03-19T11:33:25.908Z,6.30
2023-03-19T11:38:39.597Z,6.27
2023-03-19T11:43:47.022Z,7.07
2023-03-19T11:49:11.256Z,7.53
2023-03-19T11:54:23.803Z,5.57
2023-03-19T11:59:38.032Z,7.13
2023-03-19T12:04:59.016Z,5.67
2023-03-19T12:10:20.386Z,8.20
2023-03-19T12:15:27.942Z,6.73
2023-03-19T12:20:40.694Z,8.20
2023-03-19T12:25:57.685Z,6.70
2023-03-19T12:31:19.117Z,6.20
2023-03-19T12:36:25.912Z,5.80
2023-03-19T12:41:30.692Z,6.73
2023-03-19T12:46:36.482Z,8.57
2023-03-19T12:51:42.104Z,6.27
2023-03-19T12:56:51.733Z,8.13
2023-03-19T13:02:01.888Z,8.00
2023-03-19T13:07:10.065Z,6.60
2023-03-19T13:12:20.704Z,6.77
2023-03-19T13:17:27.518Z,5.67
2023-03-19T13:22:35.210Z,5.60
2023-03-19T13:27:38.715Z,3.70
2023-03-19T13:32:43.121Z,5.40
2023-03-19T13:37:48.021Z,5.07
2023-03-19T13:42:57.337Z,3.80
2023-03-19T13:48:24.705Z,5.33
2023-03-19T13:53:40.532Z,4.83
2023-03-19T13:58:49.481Z,4.47
2023-03-19T14:03:56.043Z,6.00
2023-03-19T14:08:58.955Z,5.80
2023-03-19T14:14:05.584Z,5.07
2023-03-19T14:19:12.470Z,5.80
2023-03-19T14:29:55.144Z,5.90
2023-03-19T14:34:57.797Z,5.07
2023-03-19T14:40:09.582Z,8.30
2023-03-19T14:45:54.904Z,5.20
2023-03-19T14:51:25.332Z,4.17
2023-03-19T14:56:31.993Z,8.07
2023-03-19T15:01:40.726Z,5.67
2023-03-19T15:06:44.966Z,5.57
2023-03-19T15:12:26.926Z,8.80
2023-03-19T15:17:31.600Z,5.20
2023-03-19T15:22:34.702Z,6.40
2023-03-19T15:27:36.903Z,6.30
2023-03-19T15:33:19.721Z,8.30
2023-03-19T15:38:08.860Z,9.53
2023-03-19T15:43:12.800Z,9.37
2023-03-19T15:48:21.481Z,9.07
2023-03-19T15:53:26.207Z,6.83
2023-03-19T15:58:32.161Z,6.63
2023-03-19T16:03:38.106Z,7.80
2023-03-19T16:08:47.313Z,7.53
2023-03-19T16:14:00.309Z,7.60
2023-03-19T16:19:04.063Z,6.23
2023-03-19T16:24:18.806Z,8.20
2023-03-19T16:29:24.031Z,6.50
2023-03-19T16:34:33.270Z,6.43
2023-03-19T16:39:37.240Z,6.20
2023-03-19T16:44:41.024Z,7.63
2023-03-19T16:49:46.353Z,7.10
2023-03-19T16:54:48.941Z,9.90
2023-03-19T16:59:51.141Z,6.27
2023-03-19T17:04:54.453Z,8.33
2023-03-19T17:09:56.262Z,9.27
2023-03-19T17:14:58.053Z,8.57
2023-03-19T17:20:01.508Z,6.90
2023-03-19T17:25:03.414Z,7.30
2023-03-19T17:30:06.473Z,8.73
2023-03-19T17:35:16.267Z,6.30
2023-03-19T17:40:20.453Z,8.20
2023-03-19T17:45:26.517Z,6.70
2023-03-19T17:50:31.540Z,7.43
2023-03-19T17:55:33.831Z,7.83
2023-03-19T18:00:35.879Z,17.97
2023-03-19T18:05:39.524Z,17.00
2023-03-19T18:10:42.165Z,12.87
2023-03-19T18:15:45.531Z,14.27
2023-03-19T18:20:50.617Z,11.30
2023-03-19T18:25:53.306Z,14.53
2023-03-19T18:30:56.124Z,10.60
2023-03-19T18:36:02.936Z,9.03
2023-03-19T18:41:05.478Z,9.33
2023-03-19T18:46:12.632Z,6.97
2023-03-19T18:51:17.142Z,10.23
2023-03-19T18:56:22.931Z,6.70
2023-03-19T19:01:26.594Z,5.90
2023-03-19T19:06:46.415Z,7.70
2023-03-19T19:11:49.973Z,8.93
2023-03-19T19:16:54.041Z,6.93
2023-03-19T19:21:57.653Z,5.27
2023-03-19T19:27:00.304Z,4.00
2023-03-19T19:32:03.328Z,3.37
2023-03-19T19:37:14.415Z,2.50
2023-03-19T19:42:19.524Z,2.00
2023-03-19T19:47:21.874Z,5.43
2023-03-19T19:52:25.708Z,3.57
2023-03-19T19:57:28.080Z,3.03
2023-03-19T20:02:30.652Z,4.03
2023-03-19T20:07:34.900Z,1.83
2023-03-19T20:12:37.464Z,2.63
2023-03-19T20:17:40.193Z,2.70
2023-03-19T20:22:43.472Z,3.07
2023-03-19T20:27:47.240Z,2.20
2023-03-19T20:32:49.805Z,2.40
2023-03-19T20:37:55.316Z,3.37
2023-03-19T20:42:57.922Z,2.30
2023-03-19T20:48:00.075Z,3.50
2023-03-19T20:53:03.559Z,3.43
2023-03-19T20:58:21.043Z,2.27
2023-03-19T21:03:24.724Z,2.13
2023-03-19T21:08:33.428Z,5.53
2023-03-19T21:13:37.021Z,3.80
2023-03-19T21:18:39.087Z,4.30
2023-03-19T21:23:47.855Z,6.50
2023-03-19T21:28:51.960Z,3.17
2023-03-19T21:33:54.335Z,4.97
2023-03-19T21:38:58.693Z,3.50
2023-03-19T21:44:03.553Z,3.83
2023-03-19T21:49:10.781Z,3.23
2023-03-19T21:54:14.321Z,5.43
2023-03-19T21:59:19.540Z,4.90
2023-03-19T22:04:21.632Z,4.13
2023-03-19T22:09:25.071Z,4.50
2023-03-19T22:14:27.166Z,5.47
2023-03-19T22:19:29.602Z,5.13
2023-03-19T22:24:33.128Z,2.93
2023-03-19T22:29:35.324Z,3.60
2023-03-19T22:34:37.538Z,2.93
2023-03-19T22:39:41.189Z,9.37
2023-03-19T22:44:43.323Z,3.03
2023-03-19T22:49:45.755Z,3.60
2023-03-19T22:54:49.240Z,4.17
2023-03-19T22:59:51.426Z,3.47
2023-03-19T23:04:53.498Z,3.57
2023-03-19T23:09:57.183Z,6.07
2023-03-19T23:15:02.406Z,3.43
2023-03-19T23:20:12.493Z,4.07
2023-03-19T23:25:18.748Z,2.97
2023-03-19T23:30:24.150Z,3.03
2023-03-19T23:35:27.969Z,3.63
2023-03-19T23:40:33.447Z,3.87
2023-03-19T23:45:38.326Z,3.33
2023-03-19T23:50:40.634Z,3.10
2023-03-19T23:55:44.176Z,3.43
